createdAt,value
2022-11-06T00:00:01.138Z,99935.88
2022-11-06T00:02:28.876Z,99932.50
2022-11-06T00:05:16.491Z,99923.69
2022-11-06T00:07:43.134Z,99915.81
2022-11-06T00:10:10.704Z,99914.13
2022-11-06T00:12:40.077Z,99915.94
2022-11-06T00:15:07.696Z,99907.13
2022-11-06T00:17:35.260Z,99897.22
2022-11-06T00:20:03.147Z,99899.78
2022-11-06T00:22:30.790Z,99890.03
2022-11-06T00:24:58.343Z,99883.50
2022-11-06T00:27:25.896Z,99889.34
2022-11-06T00:29:53.451Z,99880.94
2022-11-06T00:32:21.053Z,99890.25
2022-11-06T00:34:48.948Z,99888.81
2022-11-06T00:37:17.580Z,99888.47
2022-11-06T00:39:45.144Z,99887.16
2022-11-06T00:42:12.699Z,99896.63
2022-11-06T00:44:40.260Z,99894.56
2022-11-06T00:47:08.213Z,99904.09
2022-11-06T00:49:35.780Z,99903.88
2022-11-06T00:52:03.411Z,99906.44
2022-11-06T00:54:30.994Z,99901.00
2022-11-06T00:56:58.550Z,99893.75
2022-11-06T00:59:26.488Z,99894.50
2022-11-06T01:01:54.164Z,99904.06
2022-11-06T01:04:22.321Z,99906.72
2022-11-06T01:06:49.906Z,99901.38
2022-11-06T01:09:17.471Z,99901.50
2022-11-06T01:12:12.922Z,99908.75
2022-11-06T01:14:34.838Z,99901.13
2022-11-06T01:17:02.352Z,99903.28
2022-11-06T01:19:29.909Z,99905.41
2022-11-06T01:21:57.845Z,99910.25
2022-11-06T01:24:25.970Z,99914.31
2022-11-06T01:27:24.929Z,99915.38
2022-11-06T01:29:43.773Z,99920.91
2022-11-06T01:32:11.721Z,99908.72
2022-11-06T01:34:39.254Z,99904.47
2022-11-06T01:37:09.191Z,99895.91
2022-11-06T01:39:40.726Z,99894.31
2022-11-06T01:42:08.314Z,99884.66
2022-11-06T01:44:36.669Z,99880.31
2022-11-06T01:47:04.195Z,99876.78
2022-11-06T01:49:34.240Z,99876.88
2022-11-06T01:52:01.815Z,99872.69
2022-11-06T01:54:29.356Z,99870.22
2022-11-06T01:56:57.298Z,99857.19
2022-11-06T01:59:24.824Z,99866.13
2022-11-06T02:01:53.738Z,99861.75
2022-11-06T02:04:21.374Z,99848.72
2022-11-06T02:06:49.310Z,99853.28
2022-11-06T02:09:17.237Z,99851.72
2022-11-06T02:11:44.839Z,99850.13
2022-11-06T02:14:14.521Z,99853.75
2022-11-06T02:16:42.036Z,99846.03
2022-11-06T02:19:09.651Z,99842.59
2022-11-06T02:21:37.587Z,99833.91
2022-11-06T02:24:05.127Z,99828.59
2022-11-06T02:26:32.714Z,99824.25
2022-11-06T02:29:00.768Z,99824.38
2022-11-06T02:31:28.424Z,99823.41
2022-11-06T02:33:56.041Z,99821.59
2022-11-06T02:36:23.587Z,99822.56
2022-11-06T02:38:53.262Z,99829.69
2022-11-06T02:41:20.863Z,99830.53
2022-11-06T02:43:48.441Z,99824.38
2022-11-06T02:46:16.369Z,99817.38
2022-11-06T02:48:43.918Z,99823.53
2022-11-06T02:51:11.784Z,99823.28
2022-11-06T02:53:40.346Z,99824.78
2022-11-06T02:56:07.923Z,99837.81
2022-11-06T02:58:38.826Z,99834.09
2022-11-06T03:01:06.678Z,99828.78
2022-11-06T03:03:35.595Z,99821.78
2022-11-06T03:06:03.186Z,99826.47
2022-11-06T03:08:31.591Z,99830.09
2022-11-06T03:10:59.594Z,99839.13
2022-11-06T03:13:27.483Z,99833.19
2022-11-06T03:15:55.045Z,99825.22
2022-11-06T03:18:22.655Z,99834.16
2022-11-06T03:20:50.199Z,99823.53
2022-11-06T03:23:18.147Z,99818.34
2022-11-06T03:25:45.746Z,99820.13
2022-11-06T03:28:14.809Z,99814.09
2022-11-06T03:30:42.941Z,99808.78
2022-11-06T03:33:10.548Z,99804.44
2022-11-06T03:35:38.887Z,99812.63
2022-11-06T03:38:06.448Z,99804.69
2022-11-06T03:40:34.247Z,99797.53
2022-11-06T03:43:01.833Z,99793.94
2022-11-06T03:45:29.421Z,99790.53
2022-11-06T03:47:57.351Z,99785.13
2022-11-06T03:50:24.914Z,99784.91
2022-11-06T03:52:54.227Z,99775.97
2022-11-06T03:55:21.820Z,99771.41
2022-11-06T03:57:49.721Z,99766.94
2022-11-06T04:03:27.064Z,99784.22
2022-11-06T04:05:54.618Z,99782.31
2022-11-06T04:08:39.440Z,99788.44
2022-11-06T04:11:23.537Z,99788.44
2022-11-06T04:14:02.321Z,99793.75
2022-11-06T04:16:29.853Z,99792.94
2022-11-06T04:18:57.824Z,99805.34
2022-11-06T04:21:26.238Z,99808.09
2022-11-06T04:24:14.145Z,99811.63
2022-11-06T04:26:40.676Z,99818.00
2022-11-06T04:29:08.270Z,99805.69
2022-11-06T04:31:35.789Z,99816.31
2022-11-06T04:34:03.358Z,99810.25
2022-11-06T04:36:31.309Z,99812.91
2022-11-06T04:38:58.866Z,99798.78
2022-11-06T04:41:26.457Z,99802.31
2022-11-06T04:43:53.985Z,99804.00
2022-11-06T04:46:21.772Z,99800.38
2022-11-06T04:48:49.363Z,99798.69
2022-11-06T04:51:16.905Z,99791.69
2022-11-06T04:53:45.118Z,99788.06
2022-11-06T04:56:12.685Z,99793.38
2022-11-06T04:58:40.234Z,99774.91
2022-11-06T05:01:08.212Z,99785.53
2022-11-06T05:03:35.822Z,99775.75
2022-11-06T05:06:03.522Z,99766.84
2022-11-06T05:08:31.100Z,99775.63
2022-11-06T05:10:58.683Z,99774.78
2022-11-06T05:13:26.637Z,99767.81
2022-11-06T05:15:54.171Z,99777.66
2022-11-06T05:18:22.968Z,99773.31
2022-11-06T05:21:10.887Z,99759.09
2022-11-06T05:23:39.282Z,99749.31
2022-11-06T05:26:06.827Z,99744.88
2022-11-06T05:28:35.259Z,99737.75
2022-11-06T05:31:02.914Z,99726.31
2022-11-06T05:33:31.116Z,99723.66
2022-11-06T05:35:59.325Z,99715.56
2022-11-06T05:38:26.908Z,99725.81
2022-11-06T05:40:54.634Z,99718.72
2022-11-06T05:43:22.566Z,99703.50
2022-11-06T05:45:50.146Z,99714.03
2022-11-06T05:48:17.685Z,99708.81
2022-11-06T05:50:45.200Z,99708.00
2022-11-06T05:53:12.811Z,99709.88
2022-11-06T05:55:40.369Z,99703.88
2022-11-06T05:58:07.924Z,99702.16
2022-11-06T06:00:35.533Z,99698.78
2022-11-06T06:03:03.162Z,99699.00
2022-11-06T06:05:31.150Z,99698.28
2022-11-06T06:07:58.762Z,99702.88
2022-11-06T06:10:26.328Z,99702.97
2022-11-06T06:12:54.100Z,99698.53
2022-11-06T06:15:21.669Z,99697.56
2022-11-06T06:17:49.242Z,99689.47
2022-11-06T06:20:16.807Z,99682.38
2022-11-06T06:22:44.732Z,99691.19
2022-11-06T06:25:22.447Z,99681.41
2022-11-06T06:27:50.789Z,99685.75
2022-11-06T06:30:18.356Z,99678.75
2022-11-06T06:32:45.903Z,99683.09
2022-11-06T06:35:13.861Z,99682.88
2022-11-06T06:37:41.399Z,99678.38
2022-11-06T06:40:10.665Z,99680.22
2022-11-06T06:42:38.327Z,99683.59
2022-11-06T06:45:05.957Z,99691.56
2022-11-06T06:47:33.936Z,99686.16
2022-11-06T06:50:01.971Z,99681.66
2022-11-06T06:52:32.291Z,99691.31
2022-11-06T06:54:59.872Z,99690.34
2022-11-06T06:57:27.511Z,99676.13
2022-11-06T06:59:55.450Z,99683.13
2022-11-06T07:02:23.133Z,99682.16
2022-11-06T07:04:50.748Z,99673.34
2022-11-06T07:07:18.312Z,99675.88
2022-11-06T07:09:45.847Z,99676.50
2022-11-06T07:12:13.785Z,99676.41
2022-11-06T07:14:41.891Z,99687.72
2022-11-06T07:17:10.384Z,99694.47
2022-11-06T07:19:38.003Z,99689.94
2022-11-06T07:22:05.594Z,99687.13
2022-11-06T07:24:33.608Z,99693.06
2022-11-06T07:27:01.203Z,99693.56
2022-11-06T07:29:28.899Z,99694.28
2022-11-06T07:31:56.534Z,99691.41
2022-11-06T07:34:24.683Z,99707.94
2022-11-06T07:36:52.290Z,99692.63
2022-11-06T07:39:19.885Z,99693.22
2022-11-06T07:41:49.545Z,99701.06
2022-11-06T07:44:17.124Z,99700.84
2022-11-06T07:46:44.778Z,99704.47
2022-11-06T07:49:12.838Z,99701.56
2022-11-06T07:51:40.508Z,99702.06
2022-11-06T07:54:08.085Z,99699.03
2022-11-06T07:56:36.100Z,99701.22
2022-11-06T07:59:03.723Z,99710.03
2022-11-06T08:01:31.456Z,99711.97
2022-11-06T08:03:59.246Z,99704.22
2022-11-06T08:06:26.873Z,99692.16
2022-11-06T08:08:58.739Z,99689.00
2022-11-06T08:11:27.756Z,99696.59
2022-11-06T08:13:55.351Z,99676.88
2022-11-06T08:16:23.685Z,99675.41
2022-11-06T08:18:51.797Z,99672.25
2022-11-06T08:21:19.598Z,99669.97
2022-11-06T08:23:47.298Z,99666.69
2022-11-06T08:26:15.298Z,99663.66
2022-11-06T08:28:43.135Z,99654.19
2022-11-06T08:31:12.806Z,99660.97
2022-11-06T08:33:40.556Z,99656.25
2022-11-06T08:36:08.225Z,99654.16
2022-11-06T08:38:36.755Z,99643.97
2022-11-06T08:41:04.443Z,99648.06
2022-11-06T08:43:33.251Z,99650.47
2022-11-06T08:46:00.840Z,99636.06
2022-11-06T08:48:28.505Z,99642.94
2022-11-06T08:50:56.522Z,99647.19
2022-11-06T08:53:24.255Z,99641.69
2022-11-06T08:55:52.871Z,99642.28
2022-11-06T08:58:20.761Z,99644.72
2022-11-06T09:00:48.679Z,99639.97
2022-11-06T09:03:18.365Z,99626.50
2022-11-06T09:05:46.225Z,99618.28
2022-11-06T09:08:14.102Z,99618.97
2022-11-06T09:10:41.803Z,99619.56
2022-11-06T09:13:09.671Z,99614.81
2022-11-06T09:15:37.898Z,99599.31
2022-11-06T09:18:05.721Z,99602.41
2022-11-06T09:20:33.415Z,99600.78
2022-11-06T09:23:01.259Z,99594.38
2022-11-06T09:25:29.470Z,99587.84
2022-11-06T09:27:59.499Z,99590.28
2022-11-06T09:30:27.722Z,99588.34
2022-11-06T09:32:57.868Z,99591.63
2022-11-06T09:35:25.772Z,99589.72
2022-11-06T09:37:53.489Z,99588.88
2022-11-06T09:40:21.858Z,99588.72
2022-11-06T09:42:49.717Z,99583.97
2022-11-06T09:45:22.903Z,99588.75
2022-11-06T09:47:50.783Z,99578.84
2022-11-06T09:50:18.623Z,99571.06
2022-11-06T09:52:46.813Z,99576.88
2022-11-06T09:55:14.902Z,99571.91
2022-11-06T09:57:43.873Z,99565.28
2022-11-06T10:00:11.674Z,99558.53
2022-11-06T10:02:39.476Z,99554.53
2022-11-06T10:05:07.645Z,99549.50
2022-11-06T10:07:35.576Z,99536.03
2022-11-06T10:10:03.287Z,99536.09
2022-11-06T10:12:31.172Z,99543.66
2022-11-06T10:14:58.913Z,99545.28
2022-11-06T10:17:27.005Z,99527.75
2022-11-06T10:19:54.876Z,99537.00
2022-11-06T10:22:22.874Z,99532.25
2022-11-06T10:24:50.838Z,99532.00
2022-11-06T10:27:18.677Z,99526.44
2022-11-06T10:29:46.947Z,99526.72
2022-11-06T10:32:14.685Z,99521.69
2022-11-06T10:34:42.585Z,99520.69
2022-11-06T10:37:10.468Z,99524.59
2022-11-06T10:39:38.278Z,99519.09
2022-11-06T10:42:06.799Z,99507.41
2022-11-06T10:44:34.745Z,99514.16
2022-11-06T10:47:02.618Z,99500.47
2022-11-06T10:49:30.904Z,99489.16
2022-11-06T10:51:58.738Z,99487.19
2022-11-06T10:54:26.902Z,99484.13
2022-11-06T10:56:54.734Z,99468.63
2022-11-06T10:59:22.702Z,99470.78
2022-11-06T11:01:50.779Z,99471.31
2022-11-06T11:04:18.773Z,99471.06
2022-11-06T11:06:47.495Z,99476.00
2022-11-06T11:09:15.455Z,99479.44
2022-11-06T11:11:44.612Z,99462.84
2022-11-06T11:14:12.526Z,99471.84
2022-11-06T11:16:40.937Z,99463.69
2022-11-06T11:19:09.328Z,99460.16
2022-11-06T11:21:37.325Z,99463.97
2022-11-06T11:24:06.007Z,99455.94
2022-11-06T11:26:33.859Z,99445.75
2022-11-06T11:29:01.729Z,99438.59
2022-11-06T11:31:29.966Z,99431.69
2022-11-06T11:33:58.259Z,99427.97
2022-11-06T11:36:28.945Z,99420.03
2022-11-06T11:38:56.858Z,99411.94
2022-11-06T11:41:24.662Z,99403.22
2022-11-06T11:43:53.020Z,99402.44
2022-11-06T11:46:21.099Z,99396.47
2022-11-06T11:48:48.839Z,99396.16
2022-11-06T11:51:16.803Z,99383.47
2022-11-06T11:53:44.553Z,99376.09
2022-11-06T11:56:13.056Z,99388.50
2022-11-06T11:58:40.901Z,99384.00
2022-11-06T12:01:11.109Z,99385.34
2022-11-06T12:03:38.994Z,99369.28
2022-11-06T12:06:06.855Z,99359.03
2022-11-06T12:08:35.344Z,99363.03
2022-11-06T12:11:03.193Z,99356.63
2022-11-06T12:13:32.075Z,99355.09
2022-11-06T12:16:00.056Z,99348.22
2022-11-06T12:18:28.382Z,99346.88
2022-11-06T12:20:56.933Z,99343.19
2022-11-06T12:23:24.910Z,99333.13
2022-11-06T12:25:54.952Z,99334.41
2022-11-06T12:28:22.776Z,99311.66
2022-11-06T12:30:50.675Z,99318.00
2022-11-06T12:33:18.893Z,99310.66
2022-11-06T12:35:47.442Z,99319.34
2022-11-06T12:38:15.575Z,99293.59
2022-11-06T12:40:43.736Z,99296.66
2022-11-06T12:43:12.060Z,99295.50
2022-11-06T12:45:40.532Z,99293.97
2022-11-06T12:48:08.365Z,99286.72
2022-11-06T12:50:37.294Z,99282.84
2022-11-06T12:53:06.501Z,99262.44
2022-11-06T12:55:34.516Z,99261.06
2022-11-06T12:58:04.187Z,99256.72
2022-11-06T13:00:32.140Z,99250.38
2022-11-06T13:03:00.530Z,99258.72
2022-11-06T13:05:28.574Z,99243.81
2022-11-06T13:07:56.387Z,99240.31
2022-11-06T13:10:24.387Z,99229.91
2022-11-06T13:12:52.278Z,99229.25
2022-11-06T13:15:22.367Z,99222.84
2022-11-06T13:17:50.190Z,99227.81
2022-11-06T13:20:18.077Z,99223.13
2022-11-06T13:22:46.511Z,99214.72
2022-11-06T13:25:14.793Z,99220.69
2022-11-06T13:27:42.777Z,99204.09
2022-11-06T13:30:10.658Z,99217.94
2022-11-06T13:32:38.379Z,99219.56
2022-11-06T13:35:06.374Z,99231.53
2022-11-06T13:37:34.197Z,99220.97
2022-11-06T13:40:04.590Z,99221.97
2022-11-06T13:42:32.520Z,99217.63
2022-11-06T13:45:00.466Z,99211.44
2022-11-06T13:47:29.474Z,99212.13
2022-11-06T13:49:57.418Z,99218.00
2022-11-06T13:52:28.077Z,99215.75
2022-11-06T13:54:55.889Z,99222.47
2022-11-06T13:57:23.760Z,99214.28
2022-11-06T13:59:51.895Z,99207.25
2022-11-06T14:02:19.886Z,99211.78
2022-11-06T14:04:52.482Z,99205.56
2022-11-06T14:07:21.362Z,99210.25
2022-11-06T14:09:49.398Z,99226.56
2022-11-06T14:12:17.529Z,99217.00
2022-11-06T14:14:45.369Z,99236.88
2022-11-06T14:17:13.293Z,99221.13
2022-11-06T14:19:43.102Z,99210.63
2022-11-06T14:22:12.933Z,99202.88
2022-11-06T14:24:40.910Z,99207.56
2022-11-06T14:27:09.271Z,99207.69
2022-11-06T14:29:37.607Z,99199.16
2022-11-06T14:32:06.822Z,99196.66
2022-11-06T14:34:34.811Z,99205.63
2022-11-06T14:37:02.643Z,99206.63
2022-11-06T14:39:30.501Z,99198.78
2022-11-06T14:41:58.259Z,99219.31
2022-11-06T14:44:26.149Z,99194.28
2022-11-06T14:46:53.971Z,99188.94
2022-11-06T14:49:21.857Z,99184.59
2022-11-06T14:51:50.017Z,99189.25
2022-11-06T14:54:17.991Z,99183.19
2022-11-06T14:56:45.743Z,99178.19
2022-11-06T14:59:13.636Z,99174.84
2022-11-06T15:01:42.010Z,99182.44
2022-11-06T15:04:09.903Z,99167.75
2022-11-06T15:06:39.369Z,99166.34
2022-11-06T15:09:07.304Z,99166.69
2022-11-06T15:11:35.156Z,99158.28
2022-11-06T15:14:08.867Z,99148.88
2022-11-06T15:16:40.974Z,99144.84
2022-11-06T15:19:10.584Z,99148.50
2022-11-06T15:21:38.493Z,99160.72
2022-11-06T15:24:06.810Z,99143.84
2022-11-06T15:26:34.624Z,99145.84
2022-11-06T15:29:04.128Z,99137.97
2022-11-06T15:31:32.030Z,99145.31
2022-11-06T15:33:59.956Z,99156.28
2022-11-06T15:36:28.209Z,99164.72
2022-11-06T15:38:56.012Z,99178.53
2022-11-06T15:41:25.021Z,99178.84
2022-11-06T15:43:55.189Z,99173.13
2022-11-06T15:46:23.165Z,99175.97
2022-11-06T15:48:51.442Z,99168.22
2022-11-06T15:51:19.210Z,99170.06
2022-11-06T15:53:47.412Z,99160.22
2022-11-06T15:56:15.836Z,99156.88
2022-11-06T15:58:43.623Z,99157.16
2022-11-06T16:01:12.075Z,99151.28
2022-11-06T16:03:40.091Z,99146.94
2022-11-06T16:06:10.121Z,99147.94
2022-11-06T16:08:38.132Z,99140.91
2022-11-06T16:11:10.731Z,99150.06
2022-11-06T16:13:41.625Z,99145.72
2022-11-06T16:16:11.141Z,99151.38
2022-11-06T16:18:39.176Z,99157.81
2022-11-06T16:21:07.151Z,99165.44
2022-11-06T16:23:39.052Z,99181.19
2022-11-06T16:26:07.768Z,99187.78
2022-11-06T16:28:36.748Z,99180.56
2022-11-06T16:31:04.558Z,99182.53
2022-11-06T16:33:32.434Z,99186.94
2022-11-06T16:36:00.269Z,99189.09
2022-11-06T16:38:40.372Z,99182.97
2022-11-06T16:41:10.529Z,99167.44
2022-11-06T16:43:38.451Z,99151.19
2022-11-06T16:46:08.123Z,99165.75
2022-11-06T16:48:38.820Z,99158.63
2022-11-06T16:51:07.322Z,99154.00
2022-11-06T16:53:37.675Z,99157.63
2022-11-06T16:56:05.773Z,99145.56
2022-11-06T16:58:33.996Z,99144.06
2022-11-06T17:01:02.521Z,99144.50
2022-11-06T17:03:30.668Z,99149.53
2022-11-06T17:05:58.553Z,99124.03
2022-11-06T17:08:26.382Z,99087.47
2022-11-06T17:10:54.250Z,99050.63
2022-11-06T17:13:22.814Z,99052.47
2022-11-06T17:15:50.633Z,99033.72
2022-11-06T17:18:19.839Z,99021.09
2022-11-06T17:20:48.763Z,99013.13
2022-11-06T17:23:16.926Z,99046.72
2022-11-06T17:25:45.442Z,99039.34
2022-11-06T17:28:13.228Z,99034.56
2022-11-06T17:30:42.847Z,99036.94
2022-11-06T17:33:11.110Z,99035.00
2022-11-06T17:35:39.562Z,99044.66
2022-11-06T17:38:07.935Z,99053.31
2022-11-06T17:40:35.984Z,99035.56
2022-11-06T17:43:04.070Z,99055.69
2022-11-06T17:45:32.089Z,99043.94
2022-11-06T17:48:00.036Z,99046.47
2022-11-06T17:50:28.372Z,99035.81
2022-11-06T17:52:56.169Z,99039.34
2022-11-06T17:55:25.865Z,99030.50
2022-11-06T17:57:53.740Z,99030.50
2022-11-06T18:00:23.169Z,99036.66
2022-11-06T18:03:02.999Z,99025.72
2022-11-06T18:05:31.318Z,99026.56
2022-11-06T18:07:59.267Z,99021.22
2022-11-06T18:10:30.443Z,99007.94
2022-11-06T18:12:58.566Z,99005.25
2022-11-06T18:15:26.499Z,98999.13
2022-11-06T18:17:54.459Z,99015.91
2022-11-06T18:20:22.307Z,99000.94
2022-11-06T18:22:50.228Z,98992.13
2022-11-06T18:25:18.935Z,98978.13
2022-11-06T18:27:46.733Z,98970.16
2022-11-06T18:30:16.682Z,98969.31
2022-11-06T18:32:44.537Z,98982.59
2022-11-06T18:35:12.939Z,98963.28
2022-11-06T18:37:41.091Z,98949.00
2022-11-06T18:40:08.905Z,98938.38
2022-11-06T18:42:36.870Z,98942.56
2022-11-06T18:45:04.858Z,98930.78
2022-11-06T18:47:33.240Z,98937.63
2022-11-06T18:50:01.416Z,98946.16
2022-11-06T18:52:55.669Z,98944.22
2022-11-06T18:55:19.691Z,98941.25
2022-11-06T18:57:47.584Z,98974.56
2022-11-06T19:00:15.706Z,98976.66
2022-11-06T19:02:43.676Z,98983.38
2022-11-06T19:05:11.624Z,98992.47
2022-11-06T19:07:40.798Z,99001.81
2022-11-06T19:10:08.840Z,99011.47
2022-11-06T19:12:37.253Z,98996.22
2022-11-06T19:15:05.208Z,98974.06
2022-11-06T19:17:33.059Z,98983.59
2022-11-06T19:20:01.823Z,98980.06
2022-11-06T19:22:31.143Z,98986.25
2022-11-06T19:24:59.053Z,98981.63
2022-11-06T19:27:26.976Z,98988.63
2022-11-06T19:29:55.256Z,98995.78
2022-11-06T19:32:25.540Z,98984.41
2022-11-06T19:34:53.474Z,98982.19
2022-11-06T19:37:21.709Z,98994.81
2022-11-06T19:39:49.521Z,99006.31
2022-11-06T19:42:17.494Z,99003.66
2022-11-06T19:44:46.825Z,99008.81
2022-11-06T19:47:14.695Z,99011.47
2022-11-06T19:49:42.945Z,99009.38
2022-11-06T19:52:41.995Z,98993.94
2022-11-06T19:55:26.555Z,99008.66
2022-11-06T19:57:51.149Z,99012.69
2022-11-06T20:00:19.375Z,99010.03
2022-11-06T20:02:47.300Z,99008.06
2022-11-06T20:05:17.289Z,99023.88
2022-11-06T20:07:45.121Z,99021.78
2022-11-06T20:10:13.009Z,99003.13
2022-11-06T20:12:41.603Z,99019.09
2022-11-06T20:15:09.572Z,99036.50
2022-11-06T20:17:40.314Z,99034.50
2022-11-06T20:20:08.209Z,99018.53
2022-11-06T20:22:36.193Z,99044.84
2022-11-06T20:25:04.164Z,99044.72
2022-11-06T20:27:31.979Z,99028.59
2022-11-06T20:30:00.050Z,99055.25
2022-11-06T20:32:27.877Z,99038.41
2022-11-06T20:34:56.150Z,99060.56
2022-11-06T20:37:24.624Z,99061.25
2022-11-06T20:39:52.592Z,99045.28
2022-11-06T20:42:20.446Z,99040.06
2022-11-06T20:44:48.361Z,99041.78
2022-11-06T20:47:16.143Z,99062.25
2022-11-06T20:49:44.773Z,99062.53
2022-11-06T20:52:14.330Z,99062.81
2022-11-06T20:54:47.542Z,99058.63
2022-11-06T20:57:16.022Z,99090.44
2022-11-06T20:59:43.999Z,99079.66
2022-11-06T21:02:12.277Z,99066.34
2022-11-06T21:04:40.361Z,99074.16
2022-11-06T21:07:10.186Z,99078.66
2022-11-06T21:09:37.981Z,99081.19
2022-11-06T21:12:05.883Z,99085.53
2022-11-06T21:14:33.984Z,99097.16
2022-11-06T21:17:02.547Z,99086.66
2022-11-06T21:19:35.420Z,99084.13
2022-11-06T21:22:03.222Z,99092.13
2022-11-06T21:24:31.158Z,99098.44
2022-11-06T21:26:59.461Z,99093.78
2022-11-06T21:29:27.384Z,99105.28
2022-11-06T21:31:55.203Z,99096.19
2022-11-06T21:34:22.984Z,99105.84
2022-11-06T21:36:50.728Z,99111.19
2022-11-06T21:39:18.886Z,99112.16
2022-11-06T21:41:46.793Z,99112.44
2022-11-06T21:44:15.935Z,99096.75
2022-11-06T21:46:45.643Z,99101.13
2022-11-06T21:49:14.054Z,99130.44
2022-11-06T21:51:42.169Z,99121.59
2022-11-06T21:54:27.436Z,99115.03
2022-11-06T21:56:55.240Z,99124.25
2022-11-06T21:59:23.146Z,99123.97
2022-11-06T22:01:51.647Z,99125.38
2022-11-06T22:04:19.587Z,99122.28
2022-11-06T22:06:47.491Z,99119.16
2022-11-06T22:09:16.613Z,99109.06
2022-11-06T22:11:46.189Z,99132.75
2022-11-06T22:14:14.492Z,99129.25
2022-11-06T22:16:42.235Z,99123.94
2022-11-06T22:19:09.968Z,99138.06
2022-11-06T22:21:39.262Z,99161.06
2022-11-06T22:24:07.482Z,99137.94
2022-11-06T22:26:35.176Z,99145.63
2022-11-06T22:29:03.036Z,99162.59
2022-11-06T22:31:30.792Z,99147.47
2022-11-06T22:34:00.603Z,99139.47
2022-11-06T22:36:28.244Z,99138.63
2022-11-06T22:38:56.293Z,99134.97
2022-11-06T22:41:23.940Z,99132.31
2022-11-06T22:43:51.621Z,99135.13
2022-11-06T22:46:20.275Z,99133.47
2022-11-06T22:48:48.327Z,99125.88
2022-11-06T22:51:16.313Z,99135.97
2022-11-06T22:53:44.044Z,99140.63
2022-11-06T22:56:12.664Z,99147.78
2022-11-06T22:58:42.470Z,99147.47
2022-11-06T23:01:10.254Z,99149.16
2022-11-06T23:03:38.306Z,99149.16
2022-11-06T23:06:05.938Z,99150.28
2022-11-06T23:08:33.619Z,99153.13
2022-11-06T23:11:02.380Z,99154.91
2022-11-06T23:13:29.934Z,99146.25
2022-11-06T23:15:57.976Z,99153.38
2022-11-06T23:18:25.605Z,99155.06
2022-11-06T23:20:53.281Z,99158.13
2022-11-06T23:23:20.950Z,99157.56
2022-11-06T23:25:48.534Z,99157.00
2022-11-06T23:28:16.877Z,99169.03
2022-11-06T23:30:44.526Z,99159.78
2022-11-06T23:33:12.439Z,99172.66
2022-11-06T23:35:40.300Z,99160.56
2022-11-06T23:38:08.016Z,99167.59
2022-11-06T23:40:35.995Z,99170.94
2022-11-06T23:43:03.566Z,99186.66
2022-11-06T23:45:44.960Z,99178.22
2022-11-06T23:48:13.574Z,99186.06
2022-11-06T23:50:41.569Z,99179.44
2022-11-06T23:53:09.249Z,99188.44
2022-11-06T23:55:36.862Z,99189.56
2022-11-06T23:58:04.849Z,99194.22
